sensor_id;sensor_type;location;lat;lon;timestamp;temperature;humidity
9437;DHT22;4757;59.334;18.034;2024-01-30T00:01:59;4.30;99.90
9437;DHT22;4757;59.334;18.034;2024-01-30T00:04:27;4.20;99.90
9437;DHT22;4757;59.334;18.034;2024-01-30T00:06:54;4.20;99.90
9437;DHT22;4757;59.334;18.034;2024-01-30T00:09:21;4.30;99.90
9437;DHT22;4757;59.334;18.034;2024-01-30T00:11:48;4.20;99.90
9437;DHT22;4757;59.334;18.034;2024-01-30T00:14:15;4.10;99.90
9437;DHT22;4757;59.334;18.034;2024-01-30T00:16:43;4.10;99.90
9437;DHT22;4757;59.334;18.034;2024-01-30T00:19:10;3.90;99.90
9437;DHT22;4757;59.334;18.034;2024-01-30T00:21:37;3.80;99.90
9437;DHT22;4757;59.334;18.034;2024-01-30T00:24:04;3.70;99.90
9437;DHT22;4757;59.334;18.034;2024-01-30T00:26:32;3.70;99.90
9437;DHT22;4757;59.334;18.034;2024-01-30T00:28:59;3.70;99.90
9437;DHT22;4757;59.334;18.034;2024-01-30T00:31:26;3.70;99.90
9437;DHT22;4757;59.334;18.034;2024-01-30T00:33:53;3.80;99.90
9437;DHT22;4757;59.334;18.034;2024-01-30T00:36:21;3.90;99.90
9437;DHT22;4757;59.334;18.034;2024-01-30T00:38:48;4.00;99.90
9437;DHT22;4757;59.334;18.034;2024-01-30T00:41:17;3.80;99.90
9437;DHT22;4757;59.334;18.034;2024-01-30T00:43:46;3.70;99.90
9437;DHT22;4757;59.334;18.034;2024-01-30T00:46:14;3.70;99.90
9437;DHT22;4757;59.334;18.034;2024-01-30T00:48:41;3.70;99.90
9437;DHT22;4757;59.334;18.034;2024-01-30T00:51:09;3.80;99.90
9437;DHT22;4757;59.334;18.034;2024-01-30T00:53:36;3.30;99.90
9437;DHT22;4757;59.334;18.034;2024-01-30T00:56:03;4.10;99.90
9437;DHT22;4757;59.334;18.034;2024-01-30T00:58:30;4.00;99.90
9437;DHT22;4757;59.334;18.034;2024-01-30T01:00:57;3.90;99.90
9437;DHT22;4757;59.334;18.034;2024-01-30T01:03:25;3.90;99.90
9437;DHT22;4757;59.334;18.034;2024-01-30T01:05:52;3.80;99.90
9437;DHT22;4757;59.334;18.034;2024-01-30T01:08:19;3.90;99.90
9437;DHT22;4757;59.334;18.034;2024-01-30T01:10:47;4.00;99.90
9437;DHT22;4757;59.334;18.034;2024-01-30T01:13:14;4.00;99.90
9437;DHT22;4757;59.334;18.034;2024-01-30T01:15:41;3.90;99.90
9437;DHT22;4757;59.334;18.034;2024-01-30T01:18:08;3.90;99.90
9437;DHT22;4757;59.334;18.034;2024-01-30T01:20:35;3.70;99.90
9437;DHT22;4757;59.334;18.034;2024-01-30T01:23:03;3.60;99.90
9437;DHT22;4757;59.334;18.034;2024-01-30T01:25:30;3.60;99.90
9437;DHT22;4757;59.334;18.034;2024-01-30T01:27:57;3.60;99.90
9437;DHT22;4757;59.334;18.034;2024-01-30T01:30:24;3.90;99.90
9437;DHT22;4757;59.334;18.034;2024-01-30T01:32:52;4.00;99.90
9437;DHT22;4757;59.334;18.034;2024-01-30T01:35:24;3.80;99.90
9437;DHT22;4757;59.334;18.034;2024-01-30T01:37:52;3.70;99.90
9437;DHT22;4757;59.334;18.034;2024-01-30T01:40:28;3.70;99.90
9437;DHT22;4757;59.334;18.034;2024-01-30T01:42:55;3.40;99.90
9437;DHT22;4757;59.334;18.034;2024-01-30T01:45:23;3.50;99.90
9437;DHT22;4757;59.334;18.034;2024-01-30T01:47:53;3.40;99.90
9437;DHT22;4757;59.334;18.034;2024-01-30T01:50:21;3.60;99.90
9437;DHT22;4757;59.334;18.034;2024-01-30T01:52:50;3.70;99.90
9437;DHT22;4757;59.334;18.034;2024-01-30T01:55:19;3.50;99.90
9437;DHT22;4757;59.334;18.034;2024-01-30T01:57:49;3.40;99.90
9437;DHT22;4757;59.334;18.034;2024-01-30T02:00:17;3.30;99.90
9437;DHT22;4757;59.334;18.034;2024-01-30T02:02:46;3.30;99.90
9437;DHT22;4757;59.334;18.034;2024-01-30T02:05:15;3.10;99.90
9437;DHT22;4757;59.334;18.034;2024-01-30T02:07:43;3.30;99.90
9437;DHT22;4757;59.334;18.034;2024-01-30T02:10:11;3.40;99.90
9437;DHT22;4757;59.334;18.034;2024-01-30T02:12:39;3.40;99.90
9437;DHT22;4757;59.334;18.034;2024-01-30T02:15:06;3.40;99.90
9437;DHT22;4757;59.334;18.034;2024-01-30T02:17:35;3.20;99.90
9437;DHT22;4757;59.334;18.034;2024-01-30T02:20:02;3.20;99.90
9437;DHT22;4757;59.334;18.034;2024-01-30T02:22:32;3.10;99.90
9437;DHT22;4757;59.334;18.034;2024-01-30T02:25:00;3.00;99.90
9437;DHT22;4757;59.334;18.034;2024-01-30T02:27:27;3.10;99.90
9437;DHT22;4757;59.334;18.034;2024-01-30T02:29:54;3.10;99.90
9437;DHT22;4757;59.334;18.034;2024-01-30T02:32:22;3.00;99.90
9437;DHT22;4757;59.334;18.034;2024-01-30T02:34:49;3.00;99.90
9437;DHT22;4757;59.334;18.034;2024-01-30T02:37:17;3.00;99.90
9437;DHT22;4757;59.334;18.034;2024-01-30T02:39:44;2.80;99.90
9437;DHT22;4757;59.334;18.034;2024-01-30T02:42:11;2.70;99.90
9437;DHT22;4757;59.334;18.034;2024-01-30T02:44:38;2.60;99.90
9437;DHT22;4757;59.334;18.034;2024-01-30T02:47:06;2.80;99.90
9437;DHT22;4757;59.334;18.034;2024-01-30T02:49:33;2.80;99.90
9437;DHT22;4757;59.334;18.034;2024-01-30T02:52:00;2.60;99.90
9437;DHT22;4757;59.334;18.034;2024-01-30T02:54:27;2.50;99.90
9437;DHT22;4757;59.334;18.034;2024-01-30T02:56:55;2.50;99.90
9437;DHT22;4757;59.334;18.034;2024-01-30T02:59:22;2.70;99.90
9437;DHT22;4757;59.334;18.034;2024-01-30T03:01:49;2.70;99.90
9437;DHT22;4757;59.334;18.034;2024-01-30T03:04:16;2.60;99.90
9437;DHT22;4757;59.334;18.034;2024-01-30T03:06:47;2.40;99.90
9437;DHT22;4757;59.334;18.034;2024-01-30T03:09:16;2.30;99.90
9437;DHT22;4757;59.334;18.034;2024-01-30T03:11:44;2.50;99.90
9437;DHT22;4757;59.334;18.034;2024-01-30T03:14:12;2.50;99.90
9437;DHT22;4757;59.334;18.034;2024-01-30T03:16:39;2.50;99.90
9437;DHT22;4757;59.334;18.034;2024-01-30T03:19:07;2.50;99.90
9437;DHT22;4757;59.334;18.034;2024-01-30T03:21:37;2.40;99.90
9437;DHT22;4757;59.334;18.034;2024-01-30T03:24:05;2.40;99.90
9437;DHT22;4757;59.334;18.034;2024-01-30T03:26:32;2.40;99.90
9437;DHT22;4757;59.334;18.034;2024-01-30T03:28:59;2.40;99.90
9437;DHT22;4757;59.334;18.034;2024-01-30T03:31:26;2.30;99.90
9437;DHT22;4757;59.334;18.034;2024-01-30T03:33:53;2.30;99.90
9437;DHT22;4757;59.334;18.034;2024-01-30T03:36:20;2.30;99.90
9437;DHT22;4757;59.334;18.034;2024-01-30T03:38:48;2.30;99.90
9437;DHT22;4757;59.334;18.034;2024-01-30T03:41:15;2.30;99.90
9437;DHT22;4757;59.334;18.034;2024-01-30T03:43:42;2.20;99.90
9437;DHT22;4757;59.334;18.034;2024-01-30T03:46:12;2.20;99.90
9437;DHT22;4757;59.334;18.034;2024-01-30T03:48:39;2.10;99.90
9437;DHT22;4757;59.334;18.034;2024-01-30T03:51:07;2.20;99.90
9437;DHT22;4757;59.334;18.034;2024-01-30T03:53:34;2.20;99.90
9437;DHT22;4757;59.334;18.034;2024-01-30T03:56:02;2.20;99.90
9437;DHT22;4757;59.334;18.034;2024-01-30T03:58:29;1.80;99.90
9437;DHT22;4757;59.334;18.034;2024-01-30T04:00:57;1.80;99.90
9437;DHT22;4757;59.334;18.034;2024-01-30T04:03:24;1.90;99.90
9437;DHT22;4757;59.334;18.034;2024-01-30T04:05:52;1.60;99.90
9437;DHT22;4757;59.334;18.034;2024-01-30T04:08:20;1.60;99.90
9437;DHT22;4757;59.334;18.034;2024-01-30T04:10:48;1.80;99.90
9437;DHT22;4757;59.334;18.034;2024-01-30T04:13:15;1.90;99.90
9437;DHT22;4757;59.334;18.034;2024-01-30T04:15:42;2.00;99.90
9437;DHT22;4757;59.334;18.034;2024-01-30T04:18:10;1.90;99.90
9437;DHT22;4757;59.334;18.034;2024-01-30T04:20:37;1.60;99.90
9437;DHT22;4757;59.334;18.034;2024-01-30T04:23:04;1.60;99.90
9437;DHT22;4757;59.334;18.034;2024-01-30T04:25:32;1.70;99.90
9437;DHT22;4757;59.334;18.034;2024-01-30T04:27:59;1.60;99.90
9437;DHT22;4757;59.334;18.034;2024-01-30T04:30:26;1.80;99.90
9437;DHT22;4757;59.334;18.034;2024-01-30T04:32:54;1.90;99.90
9437;DHT22;4757;59.334;18.034;2024-01-30T04:35:21;2.00;99.90
9437;DHT22;4757;59.334;18.034;2024-01-30T04:37:52;1.90;99.90
9437;DHT22;4757;59.334;18.034;2024-01-30T04:40:21;1.90;99.90
9437;DHT22;4757;59.334;18.034;2024-01-30T04:42:48;2.00;99.90
9437;DHT22;4757;59.334;18.034;2024-01-30T04:45:15;1.90;99.90
9437;DHT22;4757;59.334;18.034;2024-01-30T04:47:42;1.90;99.90
9437;DHT22;4757;59.334;18.034;2024-01-30T04:50:10;1.90;99.90
9437;DHT22;4757;59.334;18.034;2024-01-30T04:52:37;1.90;99.90
9437;DHT22;4757;59.334;18.034;2024-01-30T04:55:04;1.90;99.90
9437;DHT22;4757;59.334;18.034;2024-01-30T04:57:32;1.90;99.90
9437;DHT22;4757;59.334;18.034;2024-01-30T05:00:00;1.90;99.90
9437;DHT22;4757;59.334;18.034;2024-01-30T05:02:27;1.90;99.90
9437;DHT22;4757;59.334;18.034;2024-01-30T05:04:54;1.90;99.90
9437;DHT22;4757;59.334;18.034;2024-01-30T05:07:22;1.90;99.90
9437;DHT22;4757;59.334;18.034;2024-01-30T05:09:49;2.00;99.90
9437;DHT22;4757;59.334;18.034;2024-01-30T05:12:16;2.00;99.90
9437;DHT22;4757;59.334;18.034;2024-01-30T05:14:44;2.00;99.90
9437;DHT22;4757;59.334;18.034;2024-01-30T05:17:11;2.00;99.90
9437;DHT22;4757;59.334;18.034;2024-01-30T05:19:39;2.10;99.90
9437;DHT22;4757;59.334;18.034;2024-01-30T05:22:06;2.10;99.90
9437;DHT22;4757;59.334;18.034;2024-01-30T05:24:34;2.00;99.90
9437;DHT22;4757;59.334;18.034;2024-01-30T05:27:01;2.00;99.90
9437;DHT22;4757;59.334;18.034;2024-01-30T05:29:28;2.00;99.90
9437;DHT22;4757;59.334;18.034;2024-01-30T05:31:55;1.90;99.90
9437;DHT22;4757;59.334;18.034;2024-01-30T05:34:22;1.90;99.90
9437;DHT22;4757;59.334;18.034;2024-01-30T05:36:49;1.80;99.90
9437;DHT22;4757;59.334;18.034;2024-01-30T05:39:17;1.80;99.90
9437;DHT22;4757;59.334;18.034;2024-01-30T05:41:44;1.80;99.90
9437;DHT22;4757;59.334;18.034;2024-01-30T05:44:11;1.80;99.90
9437;DHT22;4757;59.334;18.034;2024-01-30T05:46:39;1.90;99.90
9437;DHT22;4757;59.334;18.034;2024-01-30T05:49:06;1.90;99.90
9437;DHT22;4757;59.334;18.034;2024-01-30T05:51:33;1.90;99.90
9437;DHT22;4757;59.334;18.034;2024-01-30T05:54:00;2.00;99.90
9437;DHT22;4757;59.334;18.034;2024-01-30T05:56:30;2.00;99.90
9437;DHT22;4757;59.334;18.034;2024-01-30T05:58:57;2.10;99.90
9437;DHT22;4757;59.334;18.034;2024-01-30T06:01:24;2.10;99.90
9437;DHT22;4757;59.334;18.034;2024-01-30T06:03:52;2.10;99.90
9437;DHT22;4757;59.334;18.034;2024-01-30T06:06:19;2.20;99.90
9437;DHT22;4757;59.334;18.034;2024-01-30T06:08:46;2.20;99.90
9437;DHT22;4757;59.334;18.034;2024-01-30T06:11:13;2.20;99.90
9437;DHT22;4757;59.334;18.034;2024-01-30T06:13:40;2.30;99.90
9437;DHT22;4757;59.334;18.034;2024-01-30T06:16:10;2.40;99.90
9437;DHT22;4757;59.334;18.034;2024-01-30T06:18:38;2.40;99.90
9437;DHT22;4757;59.334;18.034;2024-01-30T06:21:06;2.50;99.90
9437;DHT22;4757;59.334;18.034;2024-01-30T06:23:36;2.20;99.90
9437;DHT22;4757;59.334;18.034;2024-01-30T06:26:03;2.20;99.90
9437;DHT22;4757;59.334;18.034;2024-01-30T06:28:30;2.20;99.90
9437;DHT22;4757;59.334;18.034;2024-01-30T06:30:58;2.30;99.90
9437;DHT22;4757;59.334;18.034;2024-01-30T06:33:27;2.30;99.90
9437;DHT22;4757;59.334;18.034;2024-01-30T06:35:54;2.30;99.90
9437;DHT22;4757;59.334;18.034;2024-01-30T06:38:22;2.10;99.90
9437;DHT22;4757;59.334;18.034;2024-01-30T06:40:49;2.00;99.90
9437;DHT22;4757;59.334;18.034;2024-01-30T06:43:17;1.90;99.90
9437;DHT22;4757;59.334;18.034;2024-01-30T06:45:44;1.80;99.90
9437;DHT22;4757;59.334;18.034;2024-01-30T06:48:12;1.90;99.90
9437;DHT22;4757;59.334;18.034;2024-01-30T06:50:39;1.90;99.90
9437;DHT22;4757;59.334;18.034;2024-01-30T06:53:06;1.90;99.90
9437;DHT22;4757;59.334;18.034;2024-01-30T06:55:33;2.10;99.90
9437;DHT22;4757;59.334;18.034;2024-01-30T06:58:01;2.20;99.90
9437;DHT22;4757;59.334;18.034;2024-01-30T07:00:28;2.10;99.90
9437;DHT22;4757;59.334;18.034;2024-01-30T07:02:56;2.40;99.90
9437;DHT22;4757;59.334;18.034;2024-01-30T07:05:23;2.20;99.90
9437;DHT22;4757;59.334;18.034;2024-01-30T07:07:50;2.00;99.90
9437;DHT22;4757;59.334;18.034;2024-01-30T07:10:18;2.40;99.90
9437;DHT22;4757;59.334;18.034;2024-01-30T07:12:45;2.40;99.90
9437;DHT22;4757;59.334;18.034;2024-01-30T07:15:12;2.60;99.90
9437;DHT22;4757;59.334;18.034;2024-01-30T07:17:43;2.70;99.90
9437;DHT22;4757;59.334;18.034;2024-01-30T07:20:10;2.50;99.90
9437;DHT22;4757;59.334;18.034;2024-01-30T07:22:43;2.40;99.90
9437;DHT22;4757;59.334;18.034;2024-01-30T07:25:11;2.50;99.90
9437;DHT22;4757;59.334;18.034;2024-01-30T07:27:38;2.70;99.90
9437;DHT22;4757;59.334;18.034;2024-01-30T07:30:06;2.70;99.90
9437;DHT22;4757;59.334;18.034;2024-01-30T07:32:33;2.70;99.90
9437;DHT22;4757;59.334;18.034;2024-01-30T07:35:01;2.60;99.90
9437;DHT22;4757;59.334;18.034;2024-01-30T07:37:35;2.60;99.90
9437;DHT22;4757;59.334;18.034;2024-01-30T07:40:03;2.80;99.90
9437;DHT22;4757;59.334;18.034;2024-01-30T07:42:31;3.00;99.90
9437;DHT22;4757;59.334;18.034;2024-01-30T07:44:58;3.40;99.90
9437;DHT22;4757;59.334;18.034;2024-01-30T07:47:25;3.30;99.90
9437;DHT22;4757;59.334;18.034;2024-01-30T07:49:53;3.20;99.90
9437;DHT22;4757;59.334;18.034;2024-01-30T07:52:21;2.70;99.90
9437;DHT22;4757;59.334;18.034;2024-01-30T07:54:55;2.90;99.90
9437;DHT22;4757;59.334;18.034;2024-01-30T07:57:22;2.90;99.90
9437;DHT22;4757;59.334;18.034;2024-01-30T07:59:49;2.80;99.90
9437;DHT22;4757;59.334;18.034;2024-01-30T08:02:17;3.00;99.90
9437;DHT22;4757;59.334;18.034;2024-01-30T08:04:44;3.00;99.90
9437;DHT22;4757;59.334;18.034;2024-01-30T08:07:15;3.10;99.90
9437;DHT22;4757;59.334;18.034;2024-01-30T08:09:44;3.00;99.90
9437;DHT22;4757;59.334;18.034;2024-01-30T08:12:11;3.20;99.90
9437;DHT22;4757;59.334;18.034;2024-01-30T08:14:40;3.20;99.90
9437;DHT22;4757;59.334;18.034;2024-01-30T08:17:08;2.90;99.90
9437;DHT22;4757;59.334;18.034;2024-01-30T08:19:35;2.70;99.90
9437;DHT22;4757;59.334;18.034;2024-01-30T08:22:02;2.80;99.90
9437;DHT22;4757;59.334;18.034;2024-01-30T08:24:30;2.70;99.90
9437;DHT22;4757;59.334;18.034;2024-01-30T08:26:57;2.80;99.90
9437;DHT22;4757;59.334;18.034;2024-01-30T08:29:25;3.00;99.90
9437;DHT22;4757;59.334;18.034;2024-01-30T08:31:52;2.90;99.90
9437;DHT22;4757;59.334;18.034;2024-01-30T08:34:20;2.70;99.90
9437;DHT22;4757;59.334;18.034;2024-01-30T08:36:48;2.90;99.90
9437;DHT22;4757;59.334;18.034;2024-01-30T08:39:15;2.60;99.90
9437;DHT22;4757;59.334;18.034;2024-01-30T08:41:42;2.50;99.90
9437;DHT22;4757;59.334;18.034;2024-01-30T08:44:09;2.70;99.90
9437;DHT22;4757;59.334;18.034;2024-01-30T08:46:38;2.60;99.90
9437;DHT22;4757;59.334;18.034;2024-01-30T08:49:05;2.50;99.90
9437;DHT22;4757;59.334;18.034;2024-01-30T08:51:32;2.80;99.90
9437;DHT22;4757;59.334;18.034;2024-01-30T08:54:00;3.10;99.90
9437;DHT22;4757;59.334;18.034;2024-01-30T08:56:28;3.40;99.90
9437;DHT22;4757;59.334;18.034;2024-01-30T08:58:55;3.60;99.90
9437;DHT22;4757;59.334;18.034;2024-01-30T09:01:22;3.60;99.90
9437;DHT22;4757;59.334;18.034;2024-01-30T09:03:49;3.00;99.90
9437;DHT22;4757;59.334;18.034;2024-01-30T09:06:16;2.90;99.90
9437;DHT22;4757;59.334;18.034;2024-01-30T09:08:43;3.00;99.90
9437;DHT22;4757;59.334;18.034;2024-01-30T09:11:15;3.10;99.90
9437;DHT22;4757;59.334;18.034;2024-01-30T09:13:42;3.10;99.90
9437;DHT22;4757;59.334;18.034;2024-01-30T09:16:10;3.10;99.90
9437;DHT22;4757;59.334;18.034;2024-01-30T09:18:37;3.10;99.90
9437;DHT22;4757;59.334;18.034;2024-01-30T09:21:05;3.10;99.90
9437;DHT22;4757;59.334;18.034;2024-01-30T09:23:32;3.20;99.90
9437;DHT22;4757;59.334;18.034;2024-01-30T09:26:03;3.20;99.90
9437;DHT22;4757;59.334;18.034;2024-01-30T09:28:39;3.10;99.90
9437;DHT22;4757;59.334;18.034;2024-01-30T09:31:21;3.30;99.90
9437;DHT22;4757;59.334;18.034;2024-01-30T09:33:48;3.20;99.90
9437;DHT22;4757;59.334;18.034;2024-01-30T09:36:18;3.20;99.90
9437;DHT22;4757;59.334;18.034;2024-01-30T09:38:49;3.30;99.90
9437;DHT22;4757;59.334;18.034;2024-01-30T09:41:16;3.30;99.90
9437;DHT22;4757;59.334;18.034;2024-01-30T09:43:48;3.30;99.90
9437;DHT22;4757;59.334;18.034;2024-01-30T09:46:17;3.40;99.90
9437;DHT22;4757;59.334;18.034;2024-01-30T09:48:48;3.40;99.90
9437;DHT22;4757;59.334;18.034;2024-01-30T09:51:19;3.40;99.90
9437;DHT22;4757;59.334;18.034;2024-01-30T09:53:50;3.40;99.90
9437;DHT22;4757;59.334;18.034;2024-01-30T09:56:17;3.50;99.90
9437;DHT22;4757;59.334;18.034;2024-01-30T09:58:45;3.60;99.90
9437;DHT22;4757;59.334;18.034;2024-01-30T10:01:13;3.60;99.90
9437;DHT22;4757;59.334;18.034;2024-01-30T10:03:45;3.60;99.90
9437;DHT22;4757;59.334;18.034;2024-01-30T10:06:14;3.50;99.90
9437;DHT22;4757;59.334;18.034;2024-01-30T10:08:42;3.70;99.90
9437;DHT22;4757;59.334;18.034;2024-01-30T10:11:10;3.80;99.90
9437;DHT22;4757;59.334;18.034;2024-01-30T10:13:38;3.80;99.90
9437;DHT22;4757;59.334;18.034;2024-01-30T10:16:06;4.00;99.90
9437;DHT22;4757;59.334;18.034;2024-01-30T10:18:33;3.80;99.90
9437;DHT22;4757;59.334;18.034;2024-01-30T10:21:03;3.90;99.90
9437;DHT22;4757;59.334;18.034;2024-01-30T10:23:32;4.00;99.90
9437;DHT22;4757;59.334;18.034;2024-01-30T10:26:03;3.90;99.90
9437;DHT22;4757;59.334;18.034;2024-01-30T10:28:30;3.80;99.90
9437;DHT22;4757;59.334;18.034;2024-01-30T10:31:00;3.90;99.90
9437;DHT22;4757;59.334;18.034;2024-01-30T10:33:32;3.90;99.90
9437;DHT22;4757;59.334;18.034;2024-01-30T10:36:02;3.90;99.90
9437;DHT22;4757;59.334;18.034;2024-01-30T10:38:30;3.90;99.90
9437;DHT22;4757;59.334;18.034;2024-01-30T10:40:59;3.90;99.90
9437;DHT22;4757;59.334;18.034;2024-01-30T10:43:36;3.80;99.90
9437;DHT22;4757;59.334;18.034;2024-01-30T10:46:19;3.80;99.90
9437;DHT22;4757;59.334;18.034;2024-01-30T10:49:05;3.70;99.90
9437;DHT22;4757;59.334;18.034;2024-01-30T10:51:34;3.60;99.90
9437;DHT22;4757;59.334;18.034;2024-01-30T10:54:05;3.60;99.90
9437;DHT22;4757;59.334;18.034;2024-01-30T10:56:33;3.80;99.90
9437;DHT22;4757;59.334;18.034;2024-01-30T10:59:02;3.90;99.90
9437;DHT22;4757;59.334;18.034;2024-01-30T11:01:30;3.80;99.90
9437;DHT22;4757;59.334;18.034;2024-01-30T11:03:58;3.80;99.90
9437;DHT22;4757;59.334;18.034;2024-01-30T11:06:28;3.80;99.90
9437;DHT22;4757;59.334;18.034;2024-01-30T11:09:02;3.90;99.90
9437;DHT22;4757;59.334;18.034;2024-01-30T11:11:57;4.10;99.90
9437;DHT22;4757;59.334;18.034;2024-01-30T11:14:32;4.20;99.90
9437;DHT22;4757;59.334;18.034;2024-01-30T11:17:00;4.30;99.90
9437;DHT22;4757;59.334;18.034;2024-01-30T11:19:31;4.30;99.90
9437;DHT22;4757;59.334;18.034;2024-01-30T11:22:00;4.30;99.90
9437;DHT22;4757;59.334;18.034;2024-01-30T11:24:27;4.30;99.90
9437;DHT22;4757;59.334;18.034;2024-01-30T11:26:59;4.30;99.90
9437;DHT22;4757;59.334;18.034;2024-01-30T11:29:29;4.30;99.90
9437;DHT22;4757;59.334;18.034;2024-01-30T11:32:00;4.30;99.90
9437;DHT22;4757;59.334;18.034;2024-01-30T11:34:27;4.30;99.90
9437;DHT22;4757;59.334;18.034;2024-01-30T11:37:09;4.30;99.90
9437;DHT22;4757;59.334;18.034;2024-01-30T11:39:39;4.30;99.90
9437;DHT22;4757;59.334;18.034;2024-01-30T11:42:08;4.30;99.90
9437;DHT22;4757;59.334;18.034;2024-01-30T11:44:35;4.30;99.90
9437;DHT22;4757;59.334;18.034;2024-01-30T11:47:03;4.30;99.90
9437;DHT22;4757;59.334;18.034;2024-01-30T11:49:30;4.30;99.90
9437;DHT22;4757;59.334;18.034;2024-01-30T11:51:58;4.70;99.90
9437;DHT22;4757;59.334;18.034;2024-01-30T11:54:26;4.40;99.90
9437;DHT22;4757;59.334;18.034;2024-01-30T11:56:53;4.40;99.90
9437;DHT22;4757;59.334;18.034;2024-01-30T11:59:21;4.40;99.90
9437;DHT22;4757;59.334;18.034;2024-01-30T12:01:48;4.40;99.90
9437;DHT22;4757;59.334;18.034;2024-01-30T12:04:16;4.30;99.90
9437;DHT22;4757;59.334;18.034;2024-01-30T12:06:43;4.30;99.90
9437;DHT22;4757;59.334;18.034;2024-01-30T12:09:10;4.30;99.90
9437;DHT22;4757;59.334;18.034;2024-01-30T12:11:46;4.50;99.90
9437;DHT22;4757;59.334;18.034;2024-01-30T12:14:14;4.70;99.90
9437;DHT22;4757;59.334;18.034;2024-01-30T12:16:42;4.50;99.90
9437;DHT22;4757;59.334;18.034;2024-01-30T12:19:09;4.50;99.90
9437;DHT22;4757;59.334;18.034;2024-01-30T12:21:38;4.50;99.90
9437;DHT22;4757;59.334;18.034;2024-01-30T12:24:06;4.40;99.90
9437;DHT22;4757;59.334;18.034;2024-01-30T12:26:34;4.40;99.90
9437;DHT22;4757;59.334;18.034;2024-01-30T12:29:04;4.40;99.90
9437;DHT22;4757;59.334;18.034;2024-01-30T12:31:32;4.20;99.90
9437;DHT22;4757;59.334;18.034;2024-01-30T12:34:02;4.10;99.90
9437;DHT22;4757;59.334;18.034;2024-01-30T12:36:30;4.20;99.90
9437;DHT22;4757;59.334;18.034;2024-01-30T12:38:58;4.20;99.90
9437;DHT22;4757;59.334;18.034;2024-01-30T12:41:25;4.20;99.90
9437;DHT22;4757;59.334;18.034;2024-01-30T12:43:59;4.30;99.90
9437;DHT22;4757;59.334;18.034;2024-01-30T12:46:29;4.20;99.90
9437;DHT22;4757;59.334;18.034;2024-01-30T12:48:57;4.20;99.90
9437;DHT22;4757;59.334;18.034;2024-01-30T12:51:24;4.10;99.90
9437;DHT22;4757;59.334;18.034;2024-01-30T12:53:51;4.70;99.90
9437;DHT22;4757;59.334;18.034;2024-01-30T12:56:18;4.30;99.90
9437;DHT22;4757;59.334;18.034;2024-01-30T12:58:46;4.10;99.90
9437;DHT22;4757;59.334;18.034;2024-01-30T13:01:20;4.20;99.90
9437;DHT22;4757;59.334;18.034;2024-01-30T13:03:48;4.20;99.90
9437;DHT22;4757;59.334;18.034;2024-01-30T13:06:15;4.20;99.90
9437;DHT22;4757;59.334;18.034;2024-01-30T13:08:42;4.20;99.90
9437;DHT22;4757;59.334;18.034;2024-01-30T13:11:09;4.10;99.90
9437;DHT22;4757;59.334;18.034;2024-01-30T13:13:46;4.20;99.90
9437;DHT22;4757;59.334;18.034;2024-01-30T13:16:14;4.20;99.90
9437;DHT22;4757;59.334;18.034;2024-01-30T13:18:41;4.10;99.90
9437;DHT22;4757;59.334;18.034;2024-01-30T13:21:09;4.10;99.90
9437;DHT22;4757;59.334;18.034;2024-01-30T13:23:36;4.10;99.90
9437;DHT22;4757;59.334;18.034;2024-01-30T13:26:03;4.10;99.90
9437;DHT22;4757;59.334;18.034;2024-01-30T13:28:30;4.00;99.90
9437;DHT22;4757;59.334;18.034;2024-01-30T13:30:58;4.00;99.90
9437;DHT22;4757;59.334;18.034;2024-01-30T13:33:26;4.60;99.90
9437;DHT22;4757;59.334;18.034;2024-01-30T13:35:53;3.90;99.90
9437;DHT22;4757;59.334;18.034;2024-01-30T13:38:20;4.00;99.90
9437;DHT22;4757;59.334;18.034;2024-01-30T13:40:48;3.90;99.90
9437;DHT22;4757;59.334;18.034;2024-01-30T13:43:15;3.90;99.90
9437;DHT22;4757;59.334;18.034;2024-01-30T13:45:43;3.90;99.90
9437;DHT22;4757;59.334;18.034;2024-01-30T13:48:11;3.80;99.90
9437;DHT22;4757;59.334;18.034;2024-01-30T13:50:38;3.90;99.90
9437;DHT22;4757;59.334;18.034;2024-01-30T13:53:05;3.90;99.90
9437;DHT22;4757;59.334;18.034;2024-01-30T13:55:33;3.90;99.90
9437;DHT22;4757;59.334;18.034;2024-01-30T13:58:00;4.00;99.90
9437;DHT22;4757;59.334;18.034;2024-01-30T14:00:28;4.00;99.90
9437;DHT22;4757;59.334;18.034;2024-01-30T14:02:56;3.90;99.90
9437;DHT22;4757;59.334;18.034;2024-01-30T14:05:25;3.90;99.90
9437;DHT22;4757;59.334;18.034;2024-01-30T14:07:53;4.00;99.90
9437;DHT22;4757;59.334;18.034;2024-01-30T14:10:21;3.90;99.90
9437;DHT22;4757;59.334;18.034;2024-01-30T14:12:48;3.90;99.90
9437;DHT22;4757;59.334;18.034;2024-01-30T14:15:15;3.90;99.90
9437;DHT22;4757;59.334;18.034;2024-01-30T14:17:55;3.90;99.90
9437;DHT22;4757;59.334;18.034;2024-01-30T14:20:23;3.90;99.90
9437;DHT22;4757;59.334;18.034;2024-01-30T14:22:50;3.90;99.90
9437;DHT22;4757;59.334;18.034;2024-01-30T14:25:18;3.80;99.90
9437;DHT22;4757;59.334;18.034;2024-01-30T14:27:46;3.80;99.90
9437;DHT22;4757;59.334;18.034;2024-01-30T14:30:13;3.90;99.90
9437;DHT22;4757;59.334;18.034;2024-01-30T14:32:41;3.90;99.90
9437;DHT22;4757;59.334;18.034;2024-01-30T14:35:11;3.80;99.90
9437;DHT22;4757;59.334;18.034;2024-01-30T14:37:39;3.90;99.90
9437;DHT22;4757;59.334;18.034;2024-01-30T14:40:07;3.80;99.90
9437;DHT22;4757;59.334;18.034;2024-01-30T14:42:35;3.80;99.90
9437;DHT22;4757;59.334;18.034;2024-01-30T14:45:06;3.80;99.90
9437;DHT22;4757;59.334;18.034;2024-01-30T14:47:34;3.60;99.90
9437;DHT22;4757;59.334;18.034;2024-01-30T14:50:03;3.70;99.90
9437;DHT22;4757;59.334;18.034;2024-01-30T14:52:35;3.80;99.90
9437;DHT22;4757;59.334;18.034;2024-01-30T14:55:03;3.80;99.90
9437;DHT22;4757;59.334;18.034;2024-01-30T14:57:30;3.80;99.90
9437;DHT22;4757;59.334;18.034;2024-01-30T14:59:57;3.70;99.90
9437;DHT22;4757;59.334;18.034;2024-01-30T15:02:25;3.60;99.90
9437;DHT22;4757;59.334;18.034;2024-01-30T15:04:52;3.80;99.90
9437;DHT22;4757;59.334;18.034;2024-01-30T15:07:19;3.80;99.90
9437;DHT22;4757;59.334;18.034;2024-01-30T15:09:59;3.90;99.90
9437;DHT22;4757;59.334;18.034;2024-01-30T15:12:26;3.90;99.90
9437;DHT22;4757;59.334;18.034;2024-01-30T15:14:53;3.80;99.90
9437;DHT22;4757;59.334;18.034;2024-01-30T15:17:21;3.90;99.90
9437;DHT22;4757;59.334;18.034;2024-01-30T15:19:48;3.90;99.90
9437;DHT22;4757;59.334;18.034;2024-01-30T15:22:15;3.90;99.90
9437;DHT22;4757;59.334;18.034;2024-01-30T15:24:42;3.80;99.90
9437;DHT22;4757;59.334;18.034;2024-01-30T15:27:09;3.80;99.90
9437;DHT22;4757;59.334;18.034;2024-01-30T15:29:36;3.90;99.90
9437;DHT22;4757;59.334;18.034;2024-01-30T15:32:04;3.80;99.90
9437;DHT22;4757;59.334;18.034;2024-01-30T15:34:31;3.80;99.90
9437;DHT22;4757;59.334;18.034;2024-01-30T15:36:59;3.80;99.90
9437;DHT22;4757;59.334;18.034;2024-01-30T15:39:28;3.80;99.90
9437;DHT22;4757;59.334;18.034;2024-01-30T15:41:56;3.80;99.90
9437;DHT22;4757;59.334;18.034;2024-01-30T15:44:25;3.70;99.90
9437;DHT22;4757;59.334;18.034;2024-01-30T15:46:52;3.70;99.90
9437;DHT22;4757;59.334;18.034;2024-01-30T15:49:19;3.70;99.90
9437;DHT22;4757;59.334;18.034;2024-01-30T15:51:47;3.70;99.90
9437;DHT22;4757;59.334;18.034;2024-01-30T15:54:14;3.70;99.90
9437;DHT22;4757;59.334;18.034;2024-01-30T15:56:42;3.70;99.90
9437;DHT22;4757;59.334;18.034;2024-01-30T15:59:10;3.70;99.90
9437;DHT22;4757;59.334;18.034;2024-01-30T16:01:37;3.80;99.90
9437;DHT22;4757;59.334;18.034;2024-01-30T16:04:04;3.70;99.90
9437;DHT22;4757;59.334;18.034;2024-01-30T16:06:32;3.70;99.90
9437;DHT22;4757;59.334;18.034;2024-01-30T16:08:59;3.70;99.90